sensor_id;sensor_type;location;lat;lon;timestamp;P1;durP1;ratioP1;P2;durP2;ratioP2
10661;SDS011;5379;51.034;7.006;2023-03-21T00:02:26;6.20;;;2.20;;
10661;SDS011;5379;51.034;7.006;2023-03-21T00:04:53;1.83;;;1.67;;
10661;SDS011;5379;51.034;7.006;2023-03-21T00:07:20;3.87;;;2.57;;
10661;SDS011;5379;51.034;7.006;2023-03-21T00:09:48;5.07;;;2.80;;
10661;SDS011;5379;51.034;7.006;2023-03-21T00:12:15;3.87;;;2.23;;
10661;SDS011;5379;51.034;7.006;2023-03-21T00:14:45;4.70;;;2.30;;
10661;SDS011;5379;51.034;7.006;2023-03-21T00:17:12;5.23;;;1.90;;
10661;SDS011;5379;51.034;7.006;2023-03-21T00:19:40;4.23;;;2.20;;
10661;SDS011;5379;51.034;7.006;2023-03-21T00:22:08;2.33;;;2.13;;
10661;SDS011;5379;51.034;7.006;2023-03-21T00:24:35;2.37;;;2.17;;
10661;SDS011;5379;51.034;7.006;2023-03-21T00:27:04;4.93;;;2.40;;
10661;SDS011;5379;51.034;7.006;2023-03-21T00:29:31;5.07;;;2.30;;
10661;SDS011;5379;51.034;7.006;2023-03-21T00:31:58;2.63;;;2.20;;
10661;SDS011;5379;51.034;7.006;2023-03-21T00:34:25;3.17;;;1.67;;
10661;SDS011;5379;51.034;7.006;2023-03-21T00:36:52;4.80;;;2.37;;
10661;SDS011;5379;51.034;7.006;2023-03-21T00:39:19;27.90;;;2.40;;
10661;SDS011;5379;51.034;7.006;2023-03-21T00:41:46;4.03;;;2.30;;
10661;SDS011;5379;51.034;7.006;2023-03-21T00:44:15;1.83;;;1.73;;
10661;SDS011;5379;51.034;7.006;2023-03-21T00:46:42;3.03;;;2.27;;
10661;SDS011;5379;51.034;7.006;2023-03-21T00:49:09;2.33;;;2.00;;
10661;SDS011;5379;51.034;7.006;2023-03-21T00:51:36;3.30;;;2.10;;
10661;SDS011;5379;51.034;7.006;2023-03-21T00:54:03;2.63;;;2.10;;
10661;SDS011;5379;51.034;7.006;2023-03-21T00:56:30;2.70;;;1.93;;
10661;SDS011;5379;51.034;7.006;2023-03-21T00:58:57;4.03;;;2.30;;
10661;SDS011;5379;51.034;7.006;2023-03-21T05:30:23;4.80;;;3.00;;
10661;SDS011;5379;51.034;7.006;2023-03-21T05:32:50;5.33;;;2.63;;
10661;SDS011;5379;51.034;7.006;2023-03-21T05:35:17;3.10;;;2.50;;
10661;SDS011;5379;51.034;7.006;2023-03-21T05:37:44;3.90;;;2.60;;
10661;SDS011;5379;51.034;7.006;2023-03-21T05:40:11;2.37;;;2.17;;
10661;SDS011;5379;51.034;7.006;2023-03-21T05:42:38;3.40;;;2.60;;
10661;SDS011;5379;51.034;7.006;2023-03-21T05:45:05;5.30;;;2.30;;
10661;SDS011;5379;51.034;7.006;2023-03-21T05:47:34;2.63;;;2.43;;
10661;SDS011;5379;51.034;7.006;2023-03-21T05:50:01;4.20;;;2.70;;
10661;SDS011;5379;51.034;7.006;2023-03-21T05:52:28;2.60;;;2.40;;
10661;SDS011;5379;51.034;7.006;2023-03-21T05:54:55;6.03;;;2.90;;
10661;SDS011;5379;51.034;7.006;2023-03-21T05:57:22;2.23;;;2.13;;
10661;SDS011;5379;51.034;7.006;2023-03-21T05:59:50;1.70;;;1.60;;
10661;SDS011;5379;51.034;7.006;2023-03-21T06:02:17;3.17;;;2.70;;
10661;SDS011;5379;51.034;7.006;2023-03-21T06:04:45;6.27;;;3.13;;
10661;SDS011;5379;51.034;7.006;2023-03-21T06:07:12;5.00;;;3.47;;
10661;SDS011;5379;51.034;7.006;2023-03-21T06:09:39;4.47;;;3.10;;
10661;SDS011;5379;51.034;7.006;2023-03-21T06:12:06;5.40;;;3.00;;
10661;SDS011;5379;51.034;7.006;2023-03-21T06:14:33;6.17;;;2.97;;
10661;SDS011;5379;51.034;7.006;2023-03-21T06:17:00;4.83;;;3.33;;
10661;SDS011;5379;51.034;7.006;2023-03-21T06:19:27;5.13;;;3.07;;
10661;SDS011;5379;51.034;7.006;2023-03-21T06:21:55;16.03;;;3.13;;
10661;SDS011;5379;51.034;7.006;2023-03-21T06:24:22;5.83;;;2.60;;
10661;SDS011;5379;51.034;7.006;2023-03-21T06:26:50;4.63;;;3.00;;
10661;SDS011;5379;51.034;7.006;2023-03-21T06:29:17;5.37;;;2.83;;
10661;SDS011;5379;51.034;7.006;2023-03-21T06:31:44;4.43;;;2.93;;
10661;SDS011;5379;51.034;7.006;2023-03-21T06:34:11;9.20;;;2.87;;
10661;SDS011;5379;51.034;7.006;2023-03-21T06:36:38;2.80;;;2.50;;
10661;SDS011;5379;51.034;7.006;2023-03-21T06:39:06;6.03;;;3.53;;
10661;SDS011;5379;51.034;7.006;2023-03-21T06:41:34;4.67;;;2.80;;
10661;SDS011;5379;51.034;7.006;2023-03-21T06:44:01;6.43;;;3.17;;
10661;SDS011;5379;51.034;7.006;2023-03-21T06:46:28;2.53;;;2.33;;
10661;SDS011;5379;51.034;7.006;2023-03-21T06:48:55;3.27;;;2.97;;
10661;SDS011;5379;51.034;7.006;2023-03-21T06:51:22;11.00;;;3.17;;
10661;SDS011;5379;51.034;7.006;2023-03-21T06:53:49;12.23;;;3.27;;
10661;SDS011;5379;51.034;7.006;2023-03-21T06:56:18;7.37;;;3.07;;
10661;SDS011;5379;51.034;7.006;2023-03-21T06:58:45;3.17;;;2.83;;
10661;SDS011;5379;51.034;7.006;2023-03-21T07:01:12;3.03;;;2.70;;
10661;SDS011;5379;51.034;7.006;2023-03-21T07:03:39;2.90;;;2.70;;
10661;SDS011;5379;51.034;7.006;2023-03-21T07:06:07;6.47;;;3.13;;
10661;SDS011;5379;51.034;7.006;2023-03-21T07:08:37;7.30;;;3.27;;
10661;SDS011;5379;51.034;7.006;2023-03-21T07:11:05;3.97;;;3.20;;
10661;SDS011;5379;51.034;7.006;2023-03-21T07:13:34;6.20;;;3.07;;
10661;SDS011;5379;51.034;7.006;2023-03-21T07:16:00;6.77;;;2.97;;
10661;SDS011;5379;51.034;7.006;2023-03-21T07:18:27;2.83;;;2.63;;
10661;SDS011;5379;51.034;7.006;2023-03-21T07:20:55;4.03;;;3.10;;
10661;SDS011;5379;51.034;7.006;2023-03-21T07:23:22;3.33;;;3.03;;
10661;SDS011;5379;51.034;7.006;2023-03-21T07:25:50;5.27;;;3.07;;
10661;SDS011;5379;51.034;7.006;2023-03-21T07:28:18;4.93;;;3.30;;
10661;SDS011;5379;51.034;7.006;2023-03-21T07:30:50;3.67;;;2.93;;
10661;SDS011;5379;51.034;7.006;2023-03-21T07:33:19;7.50;;;3.47;;
10661;SDS011;5379;51.034;7.006;2023-03-21T07:35:47;8.50;;;4.03;;
10661;SDS011;5379;51.034;7.006;2023-03-21T07:38:14;5.63;;;3.90;;
10661;SDS011;5379;51.034;7.006;2023-03-21T07:40:41;5.57;;;3.60;;
10661;SDS011;5379;51.034;7.006;2023-03-21T07:43:09;6.73;;;4.47;;
10661;SDS011;5379;51.034;7.006;2023-03-21T07:45:36;12.43;;;4.50;;
10661;SDS011;5379;51.034;7.006;2023-03-21T07:48:04;7.27;;;3.87;;
10661;SDS011;5379;51.034;7.006;2023-03-21T07:50:31;8.50;;;3.73;;
10661;SDS011;5379;51.034;7.006;2023-03-21T07:52:58;6.27;;;4.57;;
10661;SDS011;5379;51.034;7.006;2023-03-21T07:55:25;8.90;;;4.50;;
10661;SDS011;5379;51.034;7.006;2023-03-21T07:57:52;7.80;;;3.97;;
10661;SDS011;5379;51.034;7.006;2023-03-21T08:00:19;10.47;;;4.80;;
10661;SDS011;5379;51.034;7.006;2023-03-21T08:02:48;7.07;;;4.37;;
10661;SDS011;5379;51.034;7.006;2023-03-21T08:05:20;8.57;;;4.50;;
10661;SDS011;5379;51.034;7.006;2023-03-21T08:07:48;6.60;;;3.77;;
10661;SDS011;5379;51.034;7.006;2023-03-21T08:10:15;7.70;;;4.73;;
10661;SDS011;5379;51.034;7.006;2023-03-21T08:12:43;6.97;;;4.40;;
10661;SDS011;5379;51.034;7.006;2023-03-21T08:15:11;6.83;;;4.80;;
10661;SDS011;5379;51.034;7.006;2023-03-21T08:17:39;11.57;;;4.50;;
10661;SDS011;5379;51.034;7.006;2023-03-21T08:20:09;12.87;;;4.40;;
10661;SDS011;5379;51.034;7.006;2023-03-21T08:22:39;6.90;;;5.00;;
10661;SDS011;5379;51.034;7.006;2023-03-21T08:25:08;5.23;;;4.37;;
10661;SDS011;5379;51.034;7.006;2023-03-21T08:27:38;7.00;;;4.47;;
10661;SDS011;5379;51.034;7.006;2023-03-21T08:30:05;6.97;;;4.37;;
10661;SDS011;5379;51.034;7.006;2023-03-21T08:32:33;10.90;;;4.70;;
10661;SDS011;5379;51.034;7.006;2023-03-21T08:35:03;10.13;;;5.03;;
10661;SDS011;5379;51.034;7.006;2023-03-21T08:37:34;7.33;;;4.63;;
10661;SDS011;5379;51.034;7.006;2023-03-21T08:40:03;12.60;;;4.63;;
10661;SDS011;5379;51.034;7.006;2023-03-21T08:42:34;7.13;;;4.83;;
10661;SDS011;5379;51.034;7.006;2023-03-21T08:45:01;10.20;;;4.87;;
10661;SDS011;5379;51.034;7.006;2023-03-21T08:47:29;8.87;;;5.13;;
10661;SDS011;5379;51.034;7.006;2023-03-21T08:49:56;6.50;;;4.60;;
10661;SDS011;5379;51.034;7.006;2023-03-21T08:52:23;7.57;;;4.77;;
10661;SDS011;5379;51.034;7.006;2023-03-21T08:54:49;15.97;;;5.13;;
10661;SDS011;5379;51.034;7.006;2023-03-21T08:57:18;8.57;;;5.43;;
10661;SDS011;5379;51.034;7.006;2023-03-21T08:59:45;7.87;;;5.07;;
10661;SDS011;5379;51.034;7.006;2023-03-21T09:02:12;9.70;;;5.83;;
10661;SDS011;5379;51.034;7.006;2023-03-21T09:04:40;12.63;;;5.20;;
10661;SDS011;5379;51.034;7.006;2023-03-21T09:07:07;8.73;;;5.27;;
10661;SDS011;5379;51.034;7.006;2023-03-21T09:09:35;9.57;;;5.30;;
10661;SDS011;5379;51.034;7.006;2023-03-21T09:12:02;7.27;;;4.77;;
10661;SDS011;5379;51.034;7.006;2023-03-21T09:14:30;14.57;;;5.03;;
10661;SDS011;5379;51.034;7.006;2023-03-21T09:16:58;8.07;;;4.23;;
10661;SDS011;5379;51.034;7.006;2023-03-21T09:19:25;8.10;;;5.23;;
10661;SDS011;5379;51.034;7.006;2023-03-21T09:21:54;7.40;;;5.17;;
10661;SDS011;5379;51.034;7.006;2023-03-21T09:24:21;9.43;;;4.30;;
10661;SDS011;5379;51.034;7.006;2023-03-21T09:26:48;5.53;;;4.27;;
10661;SDS011;5379;51.034;7.006;2023-03-21T09:29:15;8.07;;;4.00;;
10661;SDS011;5379;51.034;7.006;2023-03-21T09:31:45;7.03;;;4.73;;
10661;SDS011;5379;51.034;7.006;2023-03-21T09:34:12;10.07;;;5.00;;
10661;SDS011;5379;51.034;7.006;2023-03-21T09:36:39;8.37;;;4.70;;
10661;SDS011;5379;51.034;7.006;2023-03-21T09:39:08;6.90;;;4.93;;
10661;SDS011;5379;51.034;7.006;2023-03-21T09:41:48;6.90;;;4.43;;
10661;SDS011;5379;51.034;7.006;2023-03-21T09:44:34;9.70;;;3.70;;
10661;SDS011;5379;51.034;7.006;2023-03-21T09:47:12;7.17;;;4.10;;
10661;SDS011;5379;51.034;7.006;2023-03-21T09:49:46;10.13;;;4.73;;
10661;SDS011;5379;51.034;7.006;2023-03-21T09:52:18;6.40;;;4.20;;
10661;SDS011;5379;51.034;7.006;2023-03-21T09:54:47;7.23;;;4.47;;
10661;SDS011;5379;51.034;7.006;2023-03-21T09:57:26;6.53;;;4.10;;
10661;SDS011;5379;51.034;7.006;2023-03-21T09:59:58;9.43;;;3.93;;
10661;SDS011;5379;51.034;7.006;2023-03-21T10:02:35;4.50;;;3.60;;
10661;SDS011;5379;51.034;7.006;2023-03-21T10:05:09;5.67;;;4.13;;
10661;SDS011;5379;51.034;7.006;2023-03-21T10:07:39;19.63;;;4.57;;
10661;SDS011;5379;51.034;7.006;2023-03-21T10:10:13;5.87;;;3.87;;
10661;SDS011;5379;51.034;7.006;2023-03-21T10:12:42;8.77;;;4.40;;
10661;SDS011;5379;51.034;7.006;2023-03-21T10:15:13;8.30;;;4.13;;
10661;SDS011;5379;51.034;7.006;2023-03-21T10:17:45;7.67;;;3.70;;
10661;SDS011;5379;51.034;7.006;2023-03-21T10:20:19;9.73;;;4.30;;
10661;SDS011;5379;51.034;7.006;2023-03-21T10:22:48;4.13;;;3.73;;
10661;SDS011;5379;51.034;7.006;2023-03-21T10:25:18;5.67;;;3.87;;
10661;SDS011;5379;51.034;7.006;2023-03-21T10:27:46;4.47;;;4.07;;
10661;SDS011;5379;51.034;7.006;2023-03-21T10:30:19;7.67;;;4.70;;
10661;SDS011;5379;51.034;7.006;2023-03-21T10:33:06;3.80;;;3.50;;
10661;SDS011;5379;51.034;7.006;2023-03-21T10:35:36;5.97;;;3.77;;
10661;SDS011;5379;51.034;7.006;2023-03-21T10:38:08;6.30;;;3.80;;
10661;SDS011;5379;51.034;7.006;2023-03-21T10:40:40;8.37;;;4.20;;
10661;SDS011;5379;51.034;7.006;2023-03-21T10:43:14;6.20;;;3.90;;
10661;SDS011;5379;51.034;7.006;2023-03-21T10:45:44;8.13;;;4.13;;
10661;SDS011;5379;51.034;7.006;2023-03-21T10:48:13;6.47;;;3.10;;
10661;SDS011;5379;51.034;7.006;2023-03-21T10:50:40;4.10;;;3.27;;
10661;SDS011;5379;51.034;7.006;2023-03-21T10:53:13;3.80;;;2.93;;
10661;SDS011;5379;51.034;7.006;2023-03-21T10:55:45;9.90;;;3.50;;
10661;SDS011;5379;51.034;7.006;2023-03-21T10:58:14;2.77;;;2.57;;
10661;SDS011;5379;51.034;7.006;2023-03-21T11:00:49;7.70;;;3.47;;
10661;SDS011;5379;51.034;7.006;2023-03-21T11:03:24;4.07;;;2.93;;
10661;SDS011;5379;51.034;7.006;2023-03-21T11:06:03;4.40;;;3.47;;
10661;SDS011;5379;51.034;7.006;2023-03-21T11:08:36;3.80;;;3.50;;
10661;SDS011;5379;51.034;7.006;2023-03-21T11:11:05;7.30;;;3.60;;
10661;SDS011;5379;51.034;7.006;2023-03-21T11:13:35;6.47;;;3.37;;
10661;SDS011;5379;51.034;7.006;2023-03-21T11:16:05;5.80;;;3.40;;
10661;SDS011;5379;51.034;7.006;2023-03-21T11:18:39;4.13;;;3.17;;
10661;SDS011;5379;51.034;7.006;2023-03-21T11:21:08;4.50;;;3.27;;
10661;SDS011;5379;51.034;7.006;2023-03-21T11:23:37;5.17;;;2.33;;
10661;SDS011;5379;51.034;7.006;2023-03-21T11:26:14;5.13;;;3.37;;
10661;SDS011;5379;51.034;7.006;2023-03-21T11:28:44;5.70;;;2.80;;
10661;SDS011;5379;51.034;7.006;2023-03-21T11:31:12;11.13;;;3.60;;
10661;SDS011;5379;51.034;7.006;2023-03-21T11:33:40;3.40;;;2.77;;
10661;SDS011;5379;51.034;7.006;2023-03-21T11:36:25;3.20;;;2.57;;
10661;SDS011;5379;51.034;7.006;2023-03-21T11:38:59;3.23;;;2.73;;
10661;SDS011;5379;51.034;7.006;2023-03-21T11:41:38;3.83;;;2.63;;
10661;SDS011;5379;51.034;7.006;2023-03-21T11:44:08;3.57;;;2.83;;
10661;SDS011;5379;51.034;7.006;2023-03-21T11:46:50;3.07;;;2.37;;
10661;SDS011;5379;51.034;7.006;2023-03-21T11:49:19;5.07;;;2.90;;
10661;SDS011;5379;51.034;7.006;2023-03-21T11:51:47;5.50;;;2.67;;
10661;SDS011;5379;51.034;7.006;2023-03-21T11:54:20;3.27;;;2.80;;
10661;SDS011;5379;51.034;7.006;2023-03-21T11:56:54;2.67;;;2.47;;
10661;SDS011;5379;51.034;7.006;2023-03-21T11:59:32;5.60;;;3.00;;
10661;SDS011;5379;51.034;7.006;2023-03-21T12:02:12;3.77;;;2.97;;
10661;SDS011;5379;51.034;7.006;2023-03-21T12:05:00;3.47;;;2.73;;
10661;SDS011;5379;51.034;7.006;2023-03-21T12:07:36;8.37;;;3.03;;
10661;SDS011;5379;51.034;7.006;2023-03-21T12:10:22;3.10;;;2.90;;
10661;SDS011;5379;51.034;7.006;2023-03-21T12:13:00;5.27;;;2.80;;
10661;SDS011;5379;51.034;7.006;2023-03-21T12:15:35;3.73;;;2.73;;
10661;SDS011;5379;51.034;7.006;2023-03-21T12:18:09;4.80;;;3.33;;
10661;SDS011;5379;51.034;7.006;2023-03-21T12:20:42;3.00;;;2.70;;
10661;SDS011;5379;51.034;7.006;2023-03-21T12:26:09;7.00;;;2.97;;
10661;SDS011;5379;51.034;7.006;2023-03-21T12:28:46;2.70;;;2.37;;
10661;SDS011;5379;51.034;7.006;2023-03-21T12:31:22;6.50;;;2.97;;
10661;SDS011;5379;51.034;7.006;2023-03-21T12:34:01;5.70;;;3.70;;
10661;SDS011;5379;51.034;7.006;2023-03-21T12:36:43;2.67;;;2.47;;
10661;SDS011;5379;51.034;7.006;2023-03-21T12:39:23;14.03;;;3.20;;
10661;SDS011;5379;51.034;7.006;2023-03-21T12:41:56;8.83;;;3.47;;
10661;SDS011;5379;51.034;7.006;2023-03-21T12:44:44;3.77;;;2.57;;
10661;SDS011;5379;51.034;7.006;2023-03-21T12:47:16;6.93;;;3.07;;
10661;SDS011;5379;51.034;7.006;2023-03-21T12:49:48;3.93;;;2.67;;
10661;SDS011;5379;51.034;7.006;2023-03-21T12:52:20;5.10;;;3.33;;
10661;SDS011;5379;51.034;7.006;2023-03-21T12:54:51;4.80;;;4.17;;
10661;SDS011;5379;51.034;7.006;2023-03-21T12:57:22;6.50;;;2.87;;
10661;SDS011;5379;51.034;7.006;2023-03-21T12:59:54;4.87;;;3.63;;
10661;SDS011;5379;51.034;7.006;2023-03-21T13:02:27;10.97;;;4.43;;
10661;SDS011;5379;51.034;7.006;2023-03-21T13:04:56;5.67;;;3.77;;
10661;SDS011;5379;51.034;7.006;2023-03-21T13:07:30;3.53;;;2.57;;
10661;SDS011;5379;51.034;7.006;2023-03-21T13:10:00;2.90;;;2.67;;
10661;SDS011;5379;51.034;7.006;2023-03-21T13:12:35;3.33;;;3.03;;
10661;SDS011;5379;51.034;7.006;2023-03-21T13:15:21;3.60;;;2.73;;
10661;SDS011;5379;51.034;7.006;2023-03-21T13:18:15;3.17;;;2.20;;
10661;SDS011;5379;51.034;7.006;2023-03-21T13:21:03;3.07;;;2.77;;
10661;SDS011;5379;51.034;7.006;2023-03-21T13:23:39;5.07;;;2.63;;
10661;SDS011;5379;51.034;7.006;2023-03-21T13:26:07;4.77;;;2.73;;
10661;SDS011;5379;51.034;7.006;2023-03-21T13:28:38;2.73;;;2.53;;
10661;SDS011;5379;51.034;7.006;2023-03-21T13:31:14;6.90;;;3.00;;
10661;SDS011;5379;51.034;7.006;2023-03-21T13:33:44;3.43;;;2.80;;
10661;SDS011;5379;51.034;7.006;2023-03-21T13:36:14;2.67;;;2.30;;
10661;SDS011;5379;51.034;7.006;2023-03-21T13:38:48;4.80;;;2.37;;
10661;SDS011;5379;51.034;7.006;2023-03-21T13:41:17;3.83;;;2.60;;
10661;SDS011;5379;51.034;7.006;2023-03-21T13:43:50;1.87;;;1.73;;
10661;SDS011;5379;51.034;7.006;2023-03-21T13:46:33;2.60;;;2.40;;
10661;SDS011;5379;51.034;7.006;2023-03-21T13:49:01;3.50;;;3.20;;
10661;SDS011;5379;51.034;7.006;2023-03-21T13:51:43;3.30;;;2.20;;
10661;SDS011;5379;51.034;7.006;2023-03-21T13:54:17;3.70;;;2.93;;
10661;SDS011;5379;51.034;7.006;2023-03-21T13:56:49;5.80;;;2.07;;
10661;SDS011;5379;51.034;7.006;2023-03-21T13:59:18;2.50;;;2.30;;
10661;SDS011;5379;51.034;7.006;2023-03-21T14:02:03;2.23;;;2.07;;
10661;SDS011;5379;51.034;7.006;2023-03-21T14:04:51;2.37;;;2.17;;
10661;SDS011;5379;51.034;7.006;2023-03-21T14:07:22;4.47;;;2.70;;
10661;SDS011;5379;51.034;7.006;2023-03-21T14:09:54;5.90;;;2.47;;
10661;SDS011;5379;51.034;7.006;2023-03-21T14:12:26;3.27;;;2.30;;
10661;SDS011;5379;51.034;7.006;2023-03-21T14:14:59;2.67;;;2.47;;
10661;SDS011;5379;51.034;7.006;2023-03-21T14:17:30;3.33;;;2.60;;
10661;SDS011;5379;51.034;7.006;2023-03-21T14:19:58;2.97;;;2.60;;
10661;SDS011;5379;51.034;7.006;2023-03-21T14:22:32;2.63;;;2.43;;
10661;SDS011;5379;51.034;7.006;2023-03-21T14:25:01;4.73;;;2.60;;
10661;SDS011;5379;51.034;7.006;2023-03-21T14:27:30;2.20;;;2.10;;
10661;SDS011;5379;51.034;7.006;2023-03-21T14:29:58;4.03;;;2.57;;
10661;SDS011;5379;51.034;7.006;2023-03-21T14:32:27;2.33;;;2.17;;
10661;SDS011;5379;51.034;7.006;2023-03-21T14:34:56;8.17;;;2.53;;
10661;SDS011;5379;51.034;7.006;2023-03-21T14:37:30;2.30;;;2.20;;
10661;SDS011;5379;51.034;7.006;2023-03-21T14:39:59;2.73;;;1.60;;
10661;SDS011;5379;51.034;7.006;2023-03-21T14:42:32;3.37;;;2.70;;
10661;SDS011;5379;51.034;7.006;2023-03-21T14:45:05;2.10;;;2.00;;
10661;SDS011;5379;51.034;7.006;2023-03-21T14:47:45;2.77;;;2.57;;
10661;SDS011;5379;51.034;7.006;2023-03-21T14:50:20;3.70;;;2.23;;
10661;SDS011;5379;51.034;7.006;2023-03-21T14:52:51;2.43;;;2.23;;
10661;SDS011;5379;51.034;7.006;2023-03-21T14:55:20;3.13;;;2.30;;
10661;SDS011;5379;51.034;7.006;2023-03-21T14:57:47;4.83;;;2.20;;
10661;SDS011;5379;51.034;7.006;2023-03-21T15:00:16;2.67;;;2.00;;
10661;SDS011;5379;51.034;7.006;2023-03-21T15:02:48;2.53;;;2.20;;
10661;SDS011;5379;51.034;7.006;2023-03-21T15:05:17;4.03;;;2.20;;
10661;SDS011;5379;51.034;7.006;2023-03-21T15:07:52;2.10;;;1.90;;
10661;SDS011;5379;51.034;7.006;2023-03-21T15:10:22;3.53;;;2.50;;
10661;SDS011;5379;51.034;7.006;2023-03-21T15:12:51;2.77;;;2.07;;
10661;SDS011;5379;51.034;7.006;2023-03-21T15:15:21;4.10;;;2.00;;
10661;SDS011;5379;51.034;7.006;2023-03-21T15:17:49;2.20;;;2.10;;
10661;SDS011;5379;51.034;7.006;2023-03-21T15:20:18;2.07;;;1.97;;
10661;SDS011;5379;51.034;7.006;2023-03-21T15:22:48;2.33;;;2.13;;
10661;SDS011;5379;51.034;7.006;2023-03-21T15:25:18;3.87;;;2.27;;
10661;SDS011;5379;51.034;7.006;2023-03-21T15:27:51;2.93;;;2.07;;
10661;SDS011;5379;51.034;7.006;2023-03-21T15:30:21;3.73;;;2.10;;
10661;SDS011;5379;51.034;7.006;2023-03-21T15:32:49;2.80;;;2.23;;
10661;SDS011;5379;51.034;7.006;2023-03-21T15:35:19;3.13;;;2.50;;
10661;SDS011;5379;51.034;7.006;2023-03-21T15:44:12;2.00;;;1.90;;
10661;SDS011;5379;51.034;7.006;2023-03-21T15:46:42;4.87;;;2.37;;
10661;SDS011;5379;51.034;7.006;2023-03-21T15:49:17;3.37;;;2.43;;
10661;SDS011;5379;51.034;7.006;2023-03-21T15:51:47;2.57;;;1.97;;
10661;SDS011;5379;51.034;7.006;2023-03-21T15:54:20;1.97;;;1.83;;
10661;SDS011;5379;51.034;7.006;2023-03-21T15:56:51;7.93;;;1.73;;
10661;SDS011;5379;51.034;7.006;2023-03-21T15:59:22;6.37;;;2.23;;
10661;SDS011;5379;51.034;7.006;2023-03-21T16:01:50;3.73;;;2.10;;
10661;SDS011;5379;51.034;7.006;2023-03-21T16:04:17;1.80;;;1.70;;
10661;SDS011;5379;51.034;7.006;2023-03-21T16:09:36;6.40;;;2.07;;
10661;SDS011;5379;51.034;7.006;2023-03-21T16:12:07;1.93;;;1.73;;
10661;SDS011;5379;51.034;7.006;2023-03-21T16:14:37;9.33;;;1.93;;
10661;SDS011;5379;51.034;7.006;2023-03-21T16:17:16;1.83;;;1.73;;
10661;SDS011;5379;51.034;7.006;2023-03-21T16:19:51;3.63;;;1.80;;
10661;SDS011;5379;51.034;7.006;2023-03-21T16:22:18;2.40;;;2.13;;
10661;SDS011;5379;51.034;7.006;2023-03-21T16:24:46;2.33;;;1.73;;
10661;SDS011;5379;51.034;7.006;2023-03-21T16:27:13;2.53;;;1.80;;
10661;SDS011;5379;51.034;7.006;2023-03-21T16:29:43;2.33;;;2.13;;
10661;SDS011;5379;51.034;7.006;2023-03-21T16:32:11;2.30;;;2.17;;
10661;SDS011;5379;51.034;7.006;2023-03-21T16:34:41;2.10;;;1.97;;
10661;SDS011;5379;51.034;7.006;2023-03-21T16:37:10;2.83;;;1.87;;
10661;SDS011;5379;51.034;7.006;2023-03-21T16:39:39;3.17;;;2.53;;
10661;SDS011;5379;51.034;7.006;2023-03-21T16:42:08;3.57;;;2.10;;
10661;SDS011;5379;51.034;7.006;2023-03-21T16:44:36;3.40;;;2.40;;
10661;SDS011;5379;51.034;7.006;2023-03-21T16:47:12;3.37;;;2.23;;
10661;SDS011;5379;51.034;7.006;2023-03-21T16:49:41;4.27;;;2.10;;
10661;SDS011;5379;51.034;7.006;2023-03-21T16:52:08;2.57;;;2.37;;
10661;SDS011;5379;51.034;7.006;2023-03-21T16:54:36;2.57;;;2.00;;
10661;SDS011;5379;51.034;7.006;2023-03-21T16:57:04;2.50;;;2.30;;
10661;SDS011;5379;51.034;7.006;2023-03-21T16:59:33;2.20;;;2.10;;
10661;SDS011;5379;51.034;7.006;2023-03-21T17:02:00;2.50;;;2.13;;
10661;SDS011;5379;51.034;7.006;2023-03-21T17:04:28;2.03;;;1.90;;
10661;SDS011;5379;51.034;7.006;2023-03-21T17:06:55;2.20;;;2.00;;
10661;SDS011;5379;51.034;7.006;2023-03-21T17:09:23;2.77;;;2.07;;
10661;SDS011;5379;51.034;7.006;2023-03-21T17:11:51;3.57;;;2.87;;
10661;SDS011;5379;51.034;7.006;2023-03-21T17:14:18;3.13;;;2.00;;
10661;SDS011;5379;51.034;7.006;2023-03-21T17:16:46;2.03;;;1.93;;
10661;SDS011;5379;51.034;7.006;2023-03-21T17:19:14;2.30;;;2.10;;
10661;SDS011;5379;51.034;7.006;2023-03-21T17:21:44;2.50;;;2.10;;
10661;SDS011;5379;51.034;7.006;2023-03-21T17:24:11;2.33;;;2.13;;
10661;SDS011;5379;51.034;7.006;2023-03-21T17:26:38;2.50;;;1.90;;
10661;SDS011;5379;51.034;7.006;2023-03-21T17:29:05;2.47;;;1.97;;
10661;SDS011;5379;51.034;7.006;2023-03-21T17:31:33;3.23;;;2.20;;
10661;SDS011;5379;51.034;7.006;2023-03-21T17:34:02;7.50;;;2.70;;
10661;SDS011;5379;51.034;7.006;2023-03-21T17:36:30;2.50;;;1.97;;
10661;SDS011;5379;51.034;7.006;2023-03-21T17:39:01;2.53;;;2.33;;
10661;SDS011;5379;51.034;7.006;2023-03-21T17:41:29;3.67;;;2.20;;
10661;SDS011;5379;51.034;7.006;2023-03-21T17:43:57;6.60;;;2.47;;
10661;SDS011;5379;51.034;7.006;2023-03-21T17:46:24;2.10;;;1.90;;
10661;SDS011;5379;51.034;7.006;2023-03-21T17:48:53;3.43;;;2.40;;
10661;SDS011;5379;51.034;7.006;2023-03-21T17:51:20;2.40;;;2.20;;
10661;SDS011;5379;51.034;7.006;2023-03-21T17:53:50;3.17;;;2.37;;
10661;SDS011;5379;51.034;7.006;2023-03-21T17:56:19;2.47;;;2.13;;
10661;SDS011;5379;51.034;7.006;2023-03-21T17:58:49;2.60;;;2.40;;
10661;SDS011;5379;51.034;7.006;2023-03-21T18:01:16;3.13;;;2.17;;
10661;SDS011;5379;51.034;7.006;2023-03-21T18:03:44;2.27;;;2.07;;
10661;SDS011;5379;51.034;7.006;2023-03-21T18:06:12;2.43;;;2.23;;
10661;SDS011;5379;51.034;7.006;2023-03-21T18:08:41;2.40;;;2.20;;
10661;SDS011;5379;51.034;7.006;2023-03-21T18:11:09;2.17;;;1.97;;
10661;SDS011;5379;51.034;7.006;2023-03-21T18:13:38;3.07;;;1.80;;
10661;SDS011;5379;51.034;7.006;2023-03-21T18:16:05;2.27;;;2.17;;
10661;SDS011;5379;51.034;7.006;2023-03-21T18:18:33;2.30;;;2.20;;
10661;SDS011;5379;51.034;7.006;2023-03-21T18:21:02;3.00;;;2.23;;
10661;SDS011;5379;51.034;7.006;2023-03-21T18:23:29;2.10;;;2.00;;
10661;SDS011;5379;51.034;7.006;2023-03-21T18:25:57;2.97;;;2.47;;
10661;SDS011;5379;51.034;7.006;2023-03-21T18:28:24;5.83;;;2.57;;
10661;SDS011;5379;51.034;7.006;2023-03-21T18:30:52;3.10;;;2.30;;
10661;SDS011;5379;51.034;7.006;2023-03-21T18:33:19;3.97;;;2.17;;
10661;SDS011;5379;51.034;7.006;2023-03-21T18:35:46;2.77;;;2.10;;
10661;SDS011;5379;51.034;7.006;2023-03-21T18:38:14;2.30;;;2.20;;
10661;SDS011;5379;51.034;7.006;2023-03-21T18:40:41;2.00;;;1.90;;
10661;SDS011;5379;51.034;7.006;2023-03-21T18:43:08;7.50;;;2.10;;
10661;SDS011;5379;51.034;7.006;2023-03-21T18:45:35;2.40;;;2.30;;
10661;SDS011;5379;51.034;7.006;2023-03-21T18:48:04;12.13;;;2.13;;
10661;SDS011;5379;51.034;7.006;2023-03-21T18:50:31;2.67;;;2.47;;
10661;SDS011;5379;51.034;7.006;2023-03-21T18:52:58;5.90;;;3.10;;
10661;SDS011;5379;51.034;7.006;2023-03-21T18:55:25;7.60;;;2.77;;
10661;SDS011;5379;51.034;7.006;2023-03-21T18:57:52;4.77;;;3.50;;
10661;SDS011;5379;51.034;7.006;2023-03-21T19:00:20;4.53;;;3.30;;
10661;SDS011;5379;51.034;7.006;2023-03-21T19:02:48;4.37;;;3.40;;
10661;SDS011;5379;51.034;7.006;2023-03-21T19:05:19;5.83;;;2.67;;
10661;SDS011;5379;51.034;7.006;2023-03-21T19:07:48;2.33;;;2.13;;
10661;SDS011;5379;51.034;7.006;2023-03-21T19:10:16;8.27;;;2.73;;
10661;SDS011;5379;51.034;7.006;2023-03-21T19:12:46;3.13;;;2.30;;
10661;SDS011;5379;51.034;7.006;2023-03-21T19:15:13;4.90;;;2.83;;
10661;SDS011;5379;51.034;7.006;2023-03-21T19:17:43;4.23;;;2.90;;
10661;SDS011;5379;51.034;7.006;2023-03-21T19:20:11;5.20;;;2.73;;
10661;SDS011;5379;51.034;7.006;2023-03-21T19:22:40;2.77;;;2.47;;
10661;SDS011;5379;51.034;7.006;2023-03-21T19:25:08;5.07;;;2.83;;
10661;SDS011;5379;51.034;7.006;2023-03-21T19:27:36;2.50;;;2.30;;
10661;SDS011;5379;51.034;7.006;2023-03-21T19:30:05;3.73;;;2.90;;
10661;SDS011;5379;51.034;7.006;2023-03-21T19:32:34;3.33;;;2.93;;
10661;SDS011;5379;51.034;7.006;2023-03-21T19:35:01;3.87;;;2.23;;
10661;SDS011;5379;51.034;7.006;2023-03-21T19:37:28;3.63;;;2.80;;
10661;SDS011;5379;51.034;7.006;2023-03-21T19:39:57;3.93;;;2.77;;
10661;SDS011;5379;51.034;7.006;2023-03-21T19:42:24;2.87;;;2.63;;
10661;SDS011;5379;51.034;7.006;2023-03-21T19:44:51;3.07;;;2.77;;
10661;SDS011;5379;51.034;7.006;2023-03-21T19:47:18;2.50;;;2.17;;
10661;SDS011;5379;51.034;7.006;2023-03-21T19:49:46;3.67;;;2.77;;
10661;SDS011;5379;51.034;7.006;2023-03-21T19:52:15;3.57;;;3.00;;
10661;SDS011;5379;51.034;7.006;2023-03-21T19:54:44;3.17;;;2.90;;
10661;SDS011;5379;51.034;7.006;2023-03-21T19:57:14;5.50;;;2.63;;
10661;SDS011;5379;51.034;7.006;2023-03-21T19:59:41;5.13;;;2.87;;